sensor_id;sensor_type;location;lat;lon;timestamp;temperature;humidity
64817;DHT22;69411;45.656;11.740;2023-07-31T00:00:34;22.70;75.10
64817;DHT22;69411;45.656;11.740;2023-07-31T00:03:01;22.70;75.20
64817;DHT22;69411;45.656;11.740;2023-07-31T00:05:26;22.80;75.20
64817;DHT22;69411;45.656;11.740;2023-07-31T00:07:52;22.80;75.20
64817;DHT22;69411;45.656;11.740;2023-07-31T00:10:20;22.80;75.10
64817;DHT22;69411;45.656;11.740;2023-07-31T00:12:47;22.90;75.10
64817;DHT22;69411;45.656;11.740;2023-07-31T00:15:14;22.90;75.00
64817;DHT22;69411;45.656;11.740;2023-07-31T00:17:40;22.90;75.00
64817;DHT22;69411;45.656;11.740;2023-07-31T00:20:07;22.90;75.00
64817;DHT22;69411;45.656;11.740;2023-07-31T00:22:33;22.90;75.00
64817;DHT22;69411;45.656;11.740;2023-07-31T00:24:59;22.90;75.10
64817;DHT22;69411;45.656;11.740;2023-07-31T00:27:25;22.90;75.10
64817;DHT22;69411;45.656;11.740;2023-07-31T00:29:51;22.90;75.20
64817;DHT22;69411;45.656;11.740;2023-07-31T00:32:17;22.90;75.20
64817;DHT22;69411;45.656;11.740;2023-07-31T00:34:43;23.00;75.30
64817;DHT22;69411;45.656;11.740;2023-07-31T00:37:09;23.00;75.30
64817;DHT22;69411;45.656;11.740;2023-07-31T00:39:35;23.00;75.50
64817;DHT22;69411;45.656;11.740;2023-07-31T00:42:02;23.00;75.50
64817;DHT22;69411;45.656;11.740;2023-07-31T00:44:28;23.00;75.60
64817;DHT22;69411;45.656;11.740;2023-07-31T00:46:56;23.00;75.50
64817;DHT22;69411;45.656;11.740;2023-07-31T00:49:22;22.90;75.50
64817;DHT22;69411;45.656;11.740;2023-07-31T00:51:49;22.90;75.40
64817;DHT22;69411;45.656;11.740;2023-07-31T00:54:15;22.90;75.40
64817;DHT22;69411;45.656;11.740;2023-07-31T00:56:42;22.90;75.40
64817;DHT22;69411;45.656;11.740;2023-07-31T00:59:10;22.90;75.40
64817;DHT22;69411;45.656;11.740;2023-07-31T01:01:36;22.80;75.40
64817;DHT22;69411;45.656;11.740;2023-07-31T01:04:02;22.80;75.40
64817;DHT22;69411;45.656;11.740;2023-07-31T01:06:48;22.80;75.40
64817;DHT22;69411;45.656;11.740;2023-07-31T01:12:02;22.70;75.60
64817;DHT22;69411;45.656;11.740;2023-07-31T01:14:28;22.60;75.50
64817;DHT22;69411;45.656;11.740;2023-07-31T01:16:55;22.60;75.50
64817;DHT22;69411;45.656;11.740;2023-07-31T01:19:26;22.60;75.50
64817;DHT22;69411;45.656;11.740;2023-07-31T01:25:06;22.50;75.60
64817;DHT22;69411;45.656;11.740;2023-07-31T01:27:43;22.50;75.60
64817;DHT22;69411;45.656;11.740;2023-07-31T01:30:16;22.50;75.60
64817;DHT22;69411;45.656;11.740;2023-07-31T01:32:43;22.50;75.60
64817;DHT22;69411;45.656;11.740;2023-07-31T01:35:13;22.50;75.70
64817;DHT22;69411;45.656;11.740;2023-07-31T01:37:39;22.40;75.70
64817;DHT22;69411;45.656;11.740;2023-07-31T01:40:06;22.40;75.80
64817;DHT22;69411;45.656;11.740;2023-07-31T01:42:33;22.40;75.80
64817;DHT22;69411;45.656;11.740;2023-07-31T01:44:59;22.40;75.80
64817;DHT22;69411;45.656;11.740;2023-07-31T01:47:25;22.40;75.80
64817;DHT22;69411;45.656;11.740;2023-07-31T01:49:51;22.40;75.70
64817;DHT22;69411;45.656;11.740;2023-07-31T01:52:17;22.40;75.70
64817;DHT22;69411;45.656;11.740;2023-07-31T01:54:43;22.40;75.70
64817;DHT22;69411;45.656;11.740;2023-07-31T01:57:09;22.40;75.70
64817;DHT22;69411;45.656;11.740;2023-07-31T01:59:35;22.40;75.70
64817;DHT22;69411;45.656;11.740;2023-07-31T02:02:01;22.40;75.60
64817;DHT22;69411;45.656;11.740;2023-07-31T02:04:27;22.40;75.50
64817;DHT22;69411;45.656;11.740;2023-07-31T02:06:53;22.40;75.60
64817;DHT22;69411;45.656;11.740;2023-07-31T02:09:20;22.40;75.60
64817;DHT22;69411;45.656;11.740;2023-07-31T02:11:46;22.40;75.60
64817;DHT22;69411;45.656;11.740;2023-07-31T02:14:12;22.40;75.60
64817;DHT22;69411;45.656;11.740;2023-07-31T02:16:38;22.40;75.50
64817;DHT22;69411;45.656;11.740;2023-07-31T02:19:04;22.40;75.60
64817;DHT22;69411;45.656;11.740;2023-07-31T02:21:30;22.40;75.60
64817;DHT22;69411;45.656;11.740;2023-07-31T02:23:56;22.40;75.70
64817;DHT22;69411;45.656;11.740;2023-07-31T02:26:22;22.40;75.60
64817;DHT22;69411;45.656;11.740;2023-07-31T02:28:48;22.40;75.60
64817;DHT22;69411;45.656;11.740;2023-07-31T02:31:14;22.30;75.60
64817;DHT22;69411;45.656;11.740;2023-07-31T02:33:40;22.30;75.70
64817;DHT22;69411;45.656;11.740;2023-07-31T02:36:06;22.30;75.70
64817;DHT22;69411;45.656;11.740;2023-07-31T02:38:32;22.30;75.70
64817;DHT22;69411;45.656;11.740;2023-07-31T02:40:58;22.30;75.70
64817;DHT22;69411;45.656;11.740;2023-07-31T02:43:24;22.30;75.70
64817;DHT22;69411;45.656;11.740;2023-07-31T02:45:53;22.30;75.80
64817;DHT22;69411;45.656;11.740;2023-07-31T02:48:19;22.30;75.90
64817;DHT22;69411;45.656;11.740;2023-07-31T02:50:45;22.30;76.00
64817;DHT22;69411;45.656;11.740;2023-07-31T02:53:11;22.30;76.00
64817;DHT22;69411;45.656;11.740;2023-07-31T02:55:37;22.20;76.00
64817;DHT22;69411;45.656;11.740;2023-07-31T02:58:04;22.20;76.00
64817;DHT22;69411;45.656;11.740;2023-07-31T03:00:30;22.20;76.10
64817;DHT22;69411;45.656;11.740;2023-07-31T03:02:56;22.10;76.10
64817;DHT22;69411;45.656;11.740;2023-07-31T03:05:22;22.20;76.20
64817;DHT22;69411;45.656;11.740;2023-07-31T03:07:49;22.10;76.30
64817;DHT22;69411;45.656;11.740;2023-07-31T03:10:15;22.20;76.40
64817;DHT22;69411;45.656;11.740;2023-07-31T03:12:40;22.10;76.40
64817;DHT22;69411;45.656;11.740;2023-07-31T03:15:07;22.10;76.40
64817;DHT22;69411;45.656;11.740;2023-07-31T03:17:33;22.10;76.40
64817;DHT22;69411;45.656;11.740;2023-07-31T03:19:59;22.10;76.40
64817;DHT22;69411;45.656;11.740;2023-07-31T03:22:25;22.10;76.40
64817;DHT22;69411;45.656;11.740;2023-07-31T03:24:51;22.00;76.40
64817;DHT22;69411;45.656;11.740;2023-07-31T03:27:18;22.10;76.20
64817;DHT22;69411;45.656;11.740;2023-07-31T03:29:44;22.00;76.10
64817;DHT22;69411;45.656;11.740;2023-07-31T03:32:10;22.10;76.00
64817;DHT22;69411;45.656;11.740;2023-07-31T03:34:36;22.00;75.90
64817;DHT22;69411;45.656;11.740;2023-07-31T03:37:03;22.00;75.90
64817;DHT22;69411;45.656;11.740;2023-07-31T03:39:30;22.00;75.90
64817;DHT22;69411;45.656;11.740;2023-07-31T03:41:57;22.00;75.90
64817;DHT22;69411;45.656;11.740;2023-07-31T03:44:23;21.90;75.90
64817;DHT22;69411;45.656;11.740;2023-07-31T03:46:49;21.90;75.90
64817;DHT22;69411;45.656;11.740;2023-07-31T03:49:14;21.90;75.90
64817;DHT22;69411;45.656;11.740;2023-07-31T03:51:40;21.90;75.90
64817;DHT22;69411;45.656;11.740;2023-07-31T03:54:07;21.90;75.80
64817;DHT22;69411;45.656;11.740;2023-07-31T03:56:33;21.90;75.80
64817;DHT22;69411;45.656;11.740;2023-07-31T03:58:59;21.90;75.80
64817;DHT22;69411;45.656;11.740;2023-07-31T04:01:26;21.90;75.80
64817;DHT22;69411;45.656;11.740;2023-07-31T04:03:52;21.90;75.80
64817;DHT22;69411;45.656;11.740;2023-07-31T04:06:18;21.90;75.80
64817;DHT22;69411;45.656;11.740;2023-07-31T04:08:44;21.90;75.80
64817;DHT22;69411;45.656;11.740;2023-07-31T04:11:11;21.80;75.80
64817;DHT22;69411;45.656;11.740;2023-07-31T04:13:38;21.90;75.70
64817;DHT22;69411;45.656;11.740;2023-07-31T04:16:04;21.90;75.70
64817;DHT22;69411;45.656;11.740;2023-07-31T04:18:30;21.90;75.70
64817;DHT22;69411;45.656;11.740;2023-07-31T04:20:57;21.90;75.60
64817;DHT22;69411;45.656;11.740;2023-07-31T04:23:26;21.90;75.50
64817;DHT22;69411;45.656;11.740;2023-07-31T04:25:52;21.90;75.50
64817;DHT22;69411;45.656;11.740;2023-07-31T04:28:18;21.90;75.40
64817;DHT22;69411;45.656;11.740;2023-07-31T04:30:44;22.00;75.40
64817;DHT22;69411;45.656;11.740;2023-07-31T04:33:10;22.00;75.30
64817;DHT22;69411;45.656;11.740;2023-07-31T04:35:36;22.10;75.20
64817;DHT22;69411;45.656;11.740;2023-07-31T04:38:02;22.10;75.20
64817;DHT22;69411;45.656;11.740;2023-07-31T04:40:28;22.20;75.10
64817;DHT22;69411;45.656;11.740;2023-07-31T04:42:54;22.20;75.00
64817;DHT22;69411;45.656;11.740;2023-07-31T04:45:20;22.30;74.90
64817;DHT22;69411;45.656;11.740;2023-07-31T04:47:46;22.40;74.70
64817;DHT22;69411;45.656;11.740;2023-07-31T04:50:12;22.80;74.50
64817;DHT22;69411;45.656;11.740;2023-07-31T04:52:38;23.40;73.90
64817;DHT22;69411;45.656;11.740;2023-07-31T04:55:05;24.40;72.00
64817;DHT22;69411;45.656;11.740;2023-07-31T04:57:30;25.50;70.10
64817;DHT22;69411;45.656;11.740;2023-07-31T04:59:56;26.60;67.20
64817;DHT22;69411;45.656;11.740;2023-07-31T05:02:22;27.60;64.70
64817;DHT22;69411;45.656;11.740;2023-07-31T05:04:48;28.60;62.70
64817;DHT22;69411;45.656;11.740;2023-07-31T05:07:14;29.70;60.70
64817;DHT22;69411;45.656;11.740;2023-07-31T05:09:41;30.70;58.30
64817;DHT22;69411;45.656;11.740;2023-07-31T05:12:07;31.60;55.90
64817;DHT22;69411;45.656;11.740;2023-07-31T05:14:33;32.40;53.80
64817;DHT22;69411;45.656;11.740;2023-07-31T05:16:59;33.20;52.20
64817;DHT22;69411;45.656;11.740;2023-07-31T05:19:25;33.90;50.60
64817;DHT22;69411;45.656;11.740;2023-07-31T05:21:51;34.50;48.80
64817;DHT22;69411;45.656;11.740;2023-07-31T05:24:17;35.00;46.80
64817;DHT22;69411;45.656;11.740;2023-07-31T05:26:43;35.50;45.60
64817;DHT22;69411;45.656;11.740;2023-07-31T05:29:09;35.90;44.90
64817;DHT22;69411;45.656;11.740;2023-07-31T05:31:35;36.40;44.10
64817;DHT22;69411;45.656;11.740;2023-07-31T05:34:01;36.70;43.20
64817;DHT22;69411;45.656;11.740;2023-07-31T05:36:27;37.00;42.80
64817;DHT22;69411;45.656;11.740;2023-07-31T05:38:53;37.60;41.90
64817;DHT22;69411;45.656;11.740;2023-07-31T05:41:20;38.00;40.80
64817;DHT22;69411;45.656;11.740;2023-07-31T05:43:46;38.50;39.60
64817;DHT22;69411;45.656;11.740;2023-07-31T05:46:12;38.70;39.00
64817;DHT22;69411;45.656;11.740;2023-07-31T05:48:38;39.10;38.40
64817;DHT22;69411;45.656;11.740;2023-07-31T05:51:04;39.60;37.90
64817;DHT22;69411;45.656;11.740;2023-07-31T05:53:30;39.90;37.30
64817;DHT22;69411;45.656;11.740;2023-07-31T05:55:56;40.20;36.70
64817;DHT22;69411;45.656;11.740;2023-07-31T05:58:23;40.60;36.40
64817;DHT22;69411;45.656;11.740;2023-07-31T06:00:49;40.80;35.90
64817;DHT22;69411;45.656;11.740;2023-07-31T06:03:15;40.90;35.70
64817;DHT22;69411;45.656;11.740;2023-07-31T06:05:41;40.90;35.50
64817;DHT22;69411;45.656;11.740;2023-07-31T06:08:07;41.00;35.40
64817;DHT22;69411;45.656;11.740;2023-07-31T06:10:33;41.30;35.40
64817;DHT22;69411;45.656;11.740;2023-07-31T06:13:00;41.90;35.10
64817;DHT22;69411;45.656;11.740;2023-07-31T06:15:26;42.70;34.40
64817;DHT22;69411;45.656;11.740;2023-07-31T06:17:52;43.50;33.40
64817;DHT22;69411;45.656;11.740;2023-07-31T06:20:18;44.10;32.40
64817;DHT22;69411;45.656;11.740;2023-07-31T06:22:45;44.70;32.10
64817;DHT22;69411;45.656;11.740;2023-07-31T06:25:11;45.30;31.40
64817;DHT22;69411;45.656;11.740;2023-07-31T06:27:37;45.70;30.80
64817;DHT22;69411;45.656;11.740;2023-07-31T06:30:04;45.80;30.70
64817;DHT22;69411;45.656;11.740;2023-07-31T06:32:30;45.90;30.90
64817;DHT22;69411;45.656;11.740;2023-07-31T06:34:57;46.40;30.80
64817;DHT22;69411;45.656;11.740;2023-07-31T06:37:23;46.50;30.20
64817;DHT22;69411;45.656;11.740;2023-07-31T06:39:49;46.40;30.30
64817;DHT22;69411;45.656;11.740;2023-07-31T06:42:14;46.50;29.80
64817;DHT22;69411;45.656;11.740;2023-07-31T06:44:40;46.40;29.40
64817;DHT22;69411;45.656;11.740;2023-07-31T06:47:08;45.80;29.20
64817;DHT22;69411;45.656;11.740;2023-07-31T06:49:34;44.90;29.30
64817;DHT22;69411;45.656;11.740;2023-07-31T06:52:00;44.40;29.20
64817;DHT22;69411;45.656;11.740;2023-07-31T06:54:26;44.10;29.10
64817;DHT22;69411;45.656;11.740;2023-07-31T06:56:52;43.80;29.30
64817;DHT22;69411;45.656;11.740;2023-07-31T06:59:18;43.60;29.40
64817;DHT22;69411;45.656;11.740;2023-07-31T07:01:44;42.90;29.70
64817;DHT22;69411;45.656;11.740;2023-07-31T07:04:10;42.00;30.40
64817;DHT22;69411;45.656;11.740;2023-07-31T07:06:36;40.90;31.70
64817;DHT22;69411;45.656;11.740;2023-07-31T07:09:02;39.90;33.20
64817;DHT22;69411;45.656;11.740;2023-07-31T07:11:29;38.90;34.30
64817;DHT22;69411;45.656;11.740;2023-07-31T07:13:55;37.90;35.50
64817;DHT22;69411;45.656;11.740;2023-07-31T07:16:21;37.10;36.70
64817;DHT22;69411;45.656;11.740;2023-07-31T07:18:47;36.60;37.40
64817;DHT22;69411;45.656;11.740;2023-07-31T07:21:13;36.10;38.10
64817;DHT22;69411;45.656;11.740;2023-07-31T07:23:43;35.60;38.90
64817;DHT22;69411;45.656;11.740;2023-07-31T07:26:09;35.20;39.10
64817;DHT22;69411;45.656;11.740;2023-07-31T07:28:34;34.80;39.40
64817;DHT22;69411;45.656;11.740;2023-07-31T07:31:03;34.40;39.90
64817;DHT22;69411;45.656;11.740;2023-07-31T07:33:29;34.10;40.30
64817;DHT22;69411;45.656;11.740;2023-07-31T07:35:55;33.80;40.80
64817;DHT22;69411;45.656;11.740;2023-07-31T07:38:21;33.60;41.00
64817;DHT22;69411;45.656;11.740;2023-07-31T07:40:47;33.40;41.00
64817;DHT22;69411;45.656;11.740;2023-07-31T07:43:16;33.10;41.40
64817;DHT22;69411;45.656;11.740;2023-07-31T07:45:42;32.90;41.20
64817;DHT22;69411;45.656;11.740;2023-07-31T07:48:08;32.70;41.60
64817;DHT22;69411;45.656;11.740;2023-07-31T07:54:00;32.50;42.30
64817;DHT22;69411;45.656;11.740;2023-07-31T07:56:26;32.40;42.50
64817;DHT22;69411;45.656;11.740;2023-07-31T07:58:53;32.30;42.50
64817;DHT22;69411;45.656;11.740;2023-07-31T08:02:16;32.10;42.80
64817;DHT22;69411;45.656;11.740;2023-07-31T08:04:42;31.90;43.00
64817;DHT22;69411;45.656;11.740;2023-07-31T08:07:11;31.70;43.60
64817;DHT22;69411;45.656;11.740;2023-07-31T08:09:39;31.50;44.20
64817;DHT22;69411;45.656;11.740;2023-07-31T08:12:06;31.40;44.60
64817;DHT22;69411;45.656;11.740;2023-07-31T08:14:34;31.20;45.00
64817;DHT22;69411;45.656;11.740;2023-07-31T08:17:02;31.10;45.60
64817;DHT22;69411;45.656;11.740;2023-07-31T08:19:28;31.10;46.10
64817;DHT22;69411;45.656;11.740;2023-07-31T08:21:54;31.00;46.20
64817;DHT22;69411;45.656;11.740;2023-07-31T08:24:20;30.90;45.90
64817;DHT22;69411;45.656;11.740;2023-07-31T08:26:47;30.90;45.90
64817;DHT22;69411;45.656;11.740;2023-07-31T08:29:13;30.90;46.40
64817;DHT22;69411;45.656;11.740;2023-07-31T08:31:38;31.00;46.70
64817;DHT22;69411;45.656;11.740;2023-07-31T08:34:13;31.10;46.10
64817;DHT22;69411;45.656;11.740;2023-07-31T08:36:40;31.10;46.60
64817;DHT22;69411;45.656;11.740;2023-07-31T08:39:15;31.10;46.40
64817;DHT22;69411;45.656;11.740;2023-07-31T08:42:13;31.10;46.70
64817;DHT22;69411;45.656;11.740;2023-07-31T08:44:41;31.10;46.90
64817;DHT22;69411;45.656;11.740;2023-07-31T08:47:09;31.00;47.10
64817;DHT22;69411;45.656;11.740;2023-07-31T08:49:37;30.90;46.50
64817;DHT22;69411;45.656;11.740;2023-07-31T08:52:08;30.80;46.90
64817;DHT22;69411;45.656;11.740;2023-07-31T08:54:37;30.70;47.30
64817;DHT22;69411;45.656;11.740;2023-07-31T08:57:04;30.70;47.50
64817;DHT22;69411;45.656;11.740;2023-07-31T08:59:31;30.70;48.30
64817;DHT22;69411;45.656;11.740;2023-07-31T09:02:05;30.70;47.30
64817;DHT22;69411;45.656;11.740;2023-07-31T09:04:32;30.70;47.20
64817;DHT22;69411;45.656;11.740;2023-07-31T09:07:01;30.60;45.90
64817;DHT22;69411;45.656;11.740;2023-07-31T09:09:30;30.40;47.00
64817;DHT22;69411;45.656;11.740;2023-07-31T09:11:56;30.40;47.50
64817;DHT22;69411;45.656;11.740;2023-07-31T09:14:25;30.30;47.50
64817;DHT22;69411;45.656;11.740;2023-07-31T09:16:52;30.20;47.60
64817;DHT22;69411;45.656;11.740;2023-07-31T09:19:26;30.30;48.10
64817;DHT22;69411;45.656;11.740;2023-07-31T09:21:53;30.50;47.20
64817;DHT22;69411;45.656;11.740;2023-07-31T09:24:29;30.50;46.90
64817;DHT22;69411;45.656;11.740;2023-07-31T09:26:56;30.50;47.20
64817;DHT22;69411;45.656;11.740;2023-07-31T09:29:23;30.50;47.00
64817;DHT22;69411;45.656;11.740;2023-07-31T09:31:50;30.50;47.50
64817;DHT22;69411;45.656;11.740;2023-07-31T09:34:16;30.40;46.90
64817;DHT22;69411;45.656;11.740;2023-07-31T09:36:44;30.30;46.70
64817;DHT22;69411;45.656;11.740;2023-07-31T09:39:11;30.20;46.90
64817;DHT22;69411;45.656;11.740;2023-07-31T09:41:42;30.10;47.00
64817;DHT22;69411;45.656;11.740;2023-07-31T09:44:09;30.00;47.20
64817;DHT22;69411;45.656;11.740;2023-07-31T09:46:36;29.90;47.40
64817;DHT22;69411;45.656;11.740;2023-07-31T09:49:08;30.00;47.80
64817;DHT22;69411;45.656;11.740;2023-07-31T09:51:38;29.90;47.50
64817;DHT22;69411;45.656;11.740;2023-07-31T09:54:11;29.80;48.10
64817;DHT22;69411;45.656;11.740;2023-07-31T09:56:44;29.80;48.00
64817;DHT22;69411;45.656;11.740;2023-07-31T09:59:20;29.80;48.30
64817;DHT22;69411;45.656;11.740;2023-07-31T10:01:46;29.90;48.20
64817;DHT22;69411;45.656;11.740;2023-07-31T10:04:13;30.00;48.30
64817;DHT22;69411;45.656;11.740;2023-07-31T10:06:42;30.00;48.00
64817;DHT22;69411;45.656;11.740;2023-07-31T10:09:12;29.90;48.10
64817;DHT22;69411;45.656;11.740;2023-07-31T10:11:47;29.90;48.40
64817;DHT22;69411;45.656;11.740;2023-07-31T10:14:20;29.90;48.40
64817;DHT22;69411;45.656;11.740;2023-07-31T10:16:47;29.90;48.30
64817;DHT22;69411;45.656;11.740;2023-07-31T10:19:14;30.00;48.30
64817;DHT22;69411;45.656;11.740;2023-07-31T10:21:42;30.10;48.40
64817;DHT22;69411;45.656;11.740;2023-07-31T10:24:08;30.00;48.10
64817;DHT22;69411;45.656;11.740;2023-07-31T10:26:35;30.10;48.20
64817;DHT22;69411;45.656;11.740;2023-07-31T10:29:04;30.10;48.10
64817;DHT22;69411;45.656;11.740;2023-07-31T10:31:30;30.20;48.40
64817;DHT22;69411;45.656;11.740;2023-07-31T10:33:58;30.20;47.90
64817;DHT22;69411;45.656;11.740;2023-07-31T10:36:25;30.10;47.90
64817;DHT22;69411;45.656;11.740;2023-07-31T10:38:52;30.10;47.70
64817;DHT22;69411;45.656;11.740;2023-07-31T10:41:31;30.10;47.90
64817;DHT22;69411;45.656;11.740;2023-07-31T10:43:59;30.20;48.10
64817;DHT22;69411;45.656;11.740;2023-07-31T10:46:28;30.20;47.90
64817;DHT22;69411;45.656;11.740;2023-07-31T10:49:02;30.30;47.90
64817;DHT22;69411;45.656;11.740;2023-07-31T10:51:34;30.30;47.90
64817;DHT22;69411;45.656;11.740;2023-07-31T10:54:16;30.40;48.70
64817;DHT22;69411;45.656;11.740;2023-07-31T10:59:13;30.40;47.70
64817;DHT22;69411;45.656;11.740;2023-07-31T11:01:56;30.40;47.60
64817;DHT22;69411;45.656;11.740;2023-07-31T11:04:29;30.40;46.60
64817;DHT22;69411;45.656;11.740;2023-07-31T11:06:59;30.30;47.50
64817;DHT22;69411;45.656;11.740;2023-07-31T11:09:31;30.40;47.10
64817;DHT22;69411;45.656;11.740;2023-07-31T11:11:59;30.40;47.60
64817;DHT22;69411;45.656;11.740;2023-07-31T11:14:27;30.40;47.30
64817;DHT22;69411;45.656;11.740;2023-07-31T11:16:52;30.40;47.40
64817;DHT22;69411;45.656;11.740;2023-07-31T11:19:23;30.50;47.60
64817;DHT22;69411;45.656;11.740;2023-07-31T11:21:50;30.50;47.80
64817;DHT22;69411;45.656;11.740;2023-07-31T11:24:17;30.50;47.90
64817;DHT22;69411;45.656;11.740;2023-07-31T11:26:50;30.50;47.80
64817;DHT22;69411;45.656;11.740;2023-07-31T11:29:17;30.50;47.80
64817;DHT22;69411;45.656;11.740;2023-07-31T11:31:44;30.50;47.90
64817;DHT22;69411;45.656;11.740;2023-07-31T11:34:10;30.50;47.90
64817;DHT22;69411;45.656;11.740;2023-07-31T11:36:36;30.40;48.10
64817;DHT22;69411;45.656;11.740;2023-07-31T11:39:07;30.40;48.10
64817;DHT22;69411;45.656;11.740;2023-07-31T11:41:33;30.50;48.20
64817;DHT22;69411;45.656;11.740;2023-07-31T11:44:02;30.50;48.30
64817;DHT22;69411;45.656;11.740;2023-07-31T11:46:30;30.50;48.30
64817;DHT22;69411;45.656;11.740;2023-07-31T11:49:00;30.50;48.00
64817;DHT22;69411;45.656;11.740;2023-07-31T11:51:27;30.60;46.80
64817;DHT22;69411;45.656;11.740;2023-07-31T11:54:01;30.70;47.60
64817;DHT22;69411;45.656;11.740;2023-07-31T11:56:28;30.70;47.40
64817;DHT22;69411;45.656;11.740;2023-07-31T12:01:21;30.70;47.20
64817;DHT22;69411;45.656;11.740;2023-07-31T12:03:49;30.70;47.00
64817;DHT22;69411;45.656;11.740;2023-07-31T12:06:15;30.70;46.30
64817;DHT22;69411;45.656;11.740;2023-07-31T12:08:41;30.70;46.30
64817;DHT22;69411;45.656;11.740;2023-07-31T12:11:09;30.70;46.20
64817;DHT22;69411;45.656;11.740;2023-07-31T12:13:35;30.70;46.20
64817;DHT22;69411;45.656;11.740;2023-07-31T12:16:03;30.60;46.50
64817;DHT22;69411;45.656;11.740;2023-07-31T12:18:33;30.70;46.30
64817;DHT22;69411;45.656;11.740;2023-07-31T12:21:01;30.70;46.50
64817;DHT22;69411;45.656;11.740;2023-07-31T12:23:32;30.70;46.40
64817;DHT22;69411;45.656;11.740;2023-07-31T12:28:29;30.70;46.00
64817;DHT22;69411;45.656;11.740;2023-07-31T12:31:00;30.70;46.10
64817;DHT22;69411;45.656;11.740;2023-07-31T12:33:33;30.70;46.30
64817;DHT22;69411;45.656;11.740;2023-07-31T12:36:07;30.70;46.30
64817;DHT22;69411;45.656;11.740;2023-07-31T12:38:36;30.70;46.70
64817;DHT22;69411;45.656;11.740;2023-07-31T12:41:02;30.70;47.00
64817;DHT22;69411;45.656;11.740;2023-07-31T12:43:28;30.70;47.10
64817;DHT22;69411;45.656;11.740;2023-07-31T12:45:55;30.80;46.90
64817;DHT22;69411;45.656;11.740;2023-07-31T12:48:24;30.90;46.80
64817;DHT22;69411;45.656;11.740;2023-07-31T12:50:52;30.90;46.70
64817;DHT22;69411;45.656;11.740;2023-07-31T12:53:19;31.00;46.70
64817;DHT22;69411;45.656;11.740;2023-07-31T12:55:45;31.00;46.60
64817;DHT22;69411;45.656;11.740;2023-07-31T12:58:11;31.00;46.50
64817;DHT22;69411;45.656;11.740;2023-07-31T13:00:40;30.90;46.70
64817;DHT22;69411;45.656;11.740;2023-07-31T13:03:06;30.90;47.00
64817;DHT22;69411;45.656;11.740;2023-07-31T13:05:32;30.90;47.10
64817;DHT22;69411;45.656;11.740;2023-07-31T13:07:58;30.90;47.20
64817;DHT22;69411;45.656;11.740;2023-07-31T13:10:25;30.90;47.30
64817;DHT22;69411;45.656;11.740;2023-07-31T13:12:52;30.90;47.20
64817;DHT22;69411;45.656;11.740;2023-07-31T13:15:18;30.90;47.00
64817;DHT22;69411;45.656;11.740;2023-07-31T13:17:45;30.90;47.20
64817;DHT22;69411;45.656;11.740;2023-07-31T13:20:11;30.80;47.30
64817;DHT22;69411;45.656;11.740;2023-07-31T13:22:38;30.90;47.10
64817;DHT22;69411;45.656;11.740;2023-07-31T13:25:10;30.90;46.80
64817;DHT22;69411;45.656;11.740;2023-07-31T13:27:37;30.90;46.90
64817;DHT22;69411;45.656;11.740;2023-07-31T13:30:08;30.90;46.90
64817;DHT22;69411;45.656;11.740;2023-07-31T13:32:34;30.90;46.80
64817;DHT22;69411;45.656;11.740;2023-07-31T13:35:07;30.90;46.90
64817;DHT22;69411;45.656;11.740;2023-07-31T13:37:34;31.00;46.90
64817;DHT22;69411;45.656;11.740;2023-07-31T13:40:00;31.00;46.80
64817;DHT22;69411;45.656;11.740;2023-07-31T13:42:26;31.00;46.80
64817;DHT22;69411;45.656;11.740;2023-07-31T13:44:54;30.90;46.70
64817;DHT22;69411;45.656;11.740;2023-07-31T13:47:21;30.90;46.90
64817;DHT22;69411;45.656;11.740;2023-07-31T13:49:47;30.90;47.20
64817;DHT22;69411;45.656;11.740;2023-07-31T13:52:13;30.90;47.20
64817;DHT22;69411;45.656;11.740;2023-07-31T13:54:40;30.90;47.30
64817;DHT22;69411;45.656;11.740;2023-07-31T13:57:06;30.90;47.00
64817;DHT22;69411;45.656;11.740;2023-07-31T13:59:32;30.90;46.70
64817;DHT22;69411;45.656;11.740;2023-07-31T14:01:58;30.80;46.50
64817;DHT22;69411;45.656;11.740;2023-07-31T14:04:24;30.70;46.80
64817;DHT22;69411;45.656;11.740;2023-07-31T14:06:50;30.70;47.00
64817;DHT22;69411;45.656;11.740;2023-07-31T14:09:16;30.70;47.10
64817;DHT22;69411;45.656;11.740;2023-07-31T14:11:47;30.70;47.30
64817;DHT22;69411;45.656;11.740;2023-07-31T14:14:13;30.70;47.30
64817;DHT22;69411;45.656;11.740;2023-07-31T14:16:40;30.70;47.20
64817;DHT22;69411;45.656;11.740;2023-07-31T14:19:08;30.70;47.20
64817;DHT22;69411;45.656;11.740;2023-07-31T14:21:34;30.70;47.10
64817;DHT22;69411;45.656;11.740;2023-07-31T14:24:00;30.60;47.20
64817;DHT22;69411;45.656;11.740;2023-07-31T14:26:26;30.70;47.40
64817;DHT22;69411;45.656;11.740;2023-07-31T14:28:52;30.70;47.40
64817;DHT22;69411;45.656;11.740;2023-07-31T14:31:18;30.80;47.40
64817;DHT22;69411;45.656;11.740;2023-07-31T14:33:44;30.90;47.30
64817;DHT22;69411;45.656;11.740;2023-07-31T14:36:10;30.90;47.30
64817;DHT22;69411;45.656;11.740;2023-07-31T14:38:36;30.90;47.20
64817;DHT22;69411;45.656;11.740;2023-07-31T14:41:02;30.90;47.30
64817;DHT22;69411;45.656;11.740;2023-07-31T14:43:28;31.00;47.10
64817;DHT22;69411;45.656;11.740;2023-07-31T14:45:54;31.00;47.20
64817;DHT22;69411;45.656;11.740;2023-07-31T14:48:23;31.10;47.30
64817;DHT22;69411;45.656;11.740;2023-07-31T14:50:49;31.10;47.10
64817;DHT22;69411;45.656;11.740;2023-07-31T14:53:15;31.10;46.90
64817;DHT22;69411;45.656;11.740;2023-07-31T14:55:41;31.10;47.00
64817;DHT22;69411;45.656;11.740;2023-07-31T14:58:09;31.10;47.40
64817;DHT22;69411;45.656;11.740;2023-07-31T15:00:36;31.10;47.60
64817;DHT22;69411;45.656;11.740;2023-07-31T15:03:03;31.00;47.80
64817;DHT22;69411;45.656;11.740;2023-07-31T15:05:29;31.00;47.90
64817;DHT22;69411;45.656;11.740;2023-07-31T15:07:55;31.00;48.00
64817;DHT22;69411;45.656;11.740;2023-07-31T15:10:20;31.00;48.10
64817;DHT22;69411;45.656;11.740;2023-07-31T15:12:46;30.90;48.10
64817;DHT22;69411;45.656;11.740;2023-07-31T15:15:13;30.90;48.10
64817;DHT22;69411;45.656;11.740;2023-07-31T15:17:39;30.80;49.00
64817;DHT22;69411;45.656;11.740;2023-07-31T15:20:06;30.90;48.50
64817;DHT22;69411;45.656;11.740;2023-07-31T15:22:32;30.90;48.30
64817;DHT22;69411;45.656;11.740;2023-07-31T15:24:58;30.90;48.40
64817;DHT22;69411;45.656;11.740;2023-07-31T15:27:26;31.00;48.30
64817;DHT22;69411;45.656;11.740;2023-07-31T15:29:55;31.00;48.00
64817;DHT22;69411;45.656;11.740;2023-07-31T15:32:21;31.00;48.00